Time;durP1;ratioP1;P1;durP2;ratioP2;P2;SDS_P1;SDS_P2;PMS_P1;PMS_P2;Temp;Humidity;BMP_temperature;BMP_pressure;BME280_temperature;BME280_humidity;BME280_pressure;Samples;Min_cycle;Max_cycle;Signal;HPM_P1;HPM_P2
2021/09/15 00:01:10;;;;;;;3.80;3.60;;;24.10;99.90;;;;;;5008380;28;20469;-79
2021/09/15 00:03:38;;;;;;;3.70;3.40;;;24.10;99.90;;;;;;5010157;28;20477;-80
2021/09/15 00:06:07;;;;;;;3.50;3.30;;;24.10;99.90;;;;;;5008585;28;20449;-80
2021/09/15 00:08:35;;;;;;;4.07;3.77;;;24.20;99.90;;;;;;5011145;28;20445;-80
2021/09/15 00:11:04;;;;;;;4.37;3.30;;;24.20;99.90;;;;;;5002482;28;20548;-79
2021/09/15 00:13:32;;;;;;;4.03;3.37;;;24.20;99.90;;;;;;5009542;28;20465;-80
2021/09/15 00:16:01;;;;;;;3.03;2.73;;;24.20;99.90;;;;;;5008637;28;20457;-79
2021/09/15 00:18:30;;;;;;;6.00;3.23;;;24.20;99.90;;;;;;5010540;28;20449;-79
2021/09/15 00:20:58;;;;;;;4.03;2.90;;;24.10;99.90;;;;;;5009007;28;20463;-79
2021/09/15 00:23:26;;;;;;;3.73;2.47;;;24.10;99.90;;;;;;5010360;28;20484;-79
2021/09/15 00:25:54;;;;;;;3.63;3.33;;;24.10;99.90;;;;;;5009500;28;20461;-80
2021/09/15 00:28:23;;;;;;;3.13;2.83;;;24.10;99.90;;;;;;5006349;28;20945;-78
2021/09/15 00:30:51;;;;;;;3.37;3.07;;;24.10;99.90;;;;;;5007579;28;20456;-78
2021/09/15 00:33:20;;;;;;;3.60;3.30;;;24.10;99.90;;;;;;5006112;28;20496;-79
2021/09/15 00:35:48;;;;;;;3.77;3.47;;;24.10;99.90;;;;;;5008845;28;20445;-79
2021/09/15 00:38:17;;;;;;;3.63;3.30;;;24.10;99.90;;;;;;5006925;28;20457;-79
2021/09/15 00:40:45;;;;;;;5.40;4.00;;;24.10;99.90;;;;;;5008930;28;20481;-79
2021/09/15 00:43:13;;;;;;;3.83;3.30;;;24.10;99.90;;;;;;5007295;28;21015;-79
2021/09/15 00:45:41;;;;;;;4.23;3.60;;;24.10;99.90;;;;;;5008467;28;20512;-80
2021/09/15 00:48:09;;;;;;;3.80;3.50;;;24.00;99.90;;;;;;5007279;28;20503;-79
2021/09/15 00:50:39;;;;;;;3.80;3.50;;;24.00;99.90;;;;;;5007860;28;20504;-79
2021/09/15 00:53:08;;;;;;;4.90;4.50;;;24.00;99.90;;;;;;5024754;28;20485;-78
2021/09/15 00:55:36;;;;;;;3.50;3.23;;;24.00;99.90;;;;;;5006968;28;20468;-79
2021/09/15 00:58:05;;;;;;;3.50;3.20;;;24.00;99.90;;;;;;5010165;28;20512;-80
2021/09/15 01:00:33;;;;;;;3.60;3.20;;;24.10;99.90;;;;;;5004226;28;20475;-79
2021/09/15 01:03:01;;;;;;;3.80;3.53;;;24.10;99.90;;;;;;5009421;28;20473;-79
2021/09/15 01:05:29;;;;;;;4.30;3.90;;;24.00;99.90;;;;;;5008513;28;20519;-79
2021/09/15 01:08:00;;;;;;;4.37;3.47;;;24.00;1.00;;;;;;5008810;28;20461;-79
2021/09/15 01:10:30;;;;;;;3.80;3.50;;;23.90;1.00;;;;;;5003529;28;20456;-78
2021/09/15 01:12:59;;;;;;;3.30;3.00;;;23.90;1.00;;;;;;4990421;28;20465;-78
2021/09/15 01:15:27;;;;;;;4.00;3.67;;;23.90;1.00;;;;;;4998050;28;20460;-79
2021/09/15 01:17:55;;;;;;;4.20;3.70;;;23.90;1.00;;;;;;5009471;28;20449;-78
2021/09/15 01:20:23;;;;;;;4.47;4.07;;;23.80;1.00;;;;;;5007709;28;20835;-78
2021/09/15 01:22:53;;;;;;;4.27;3.93;;;23.90;1.00;;;;;;5008923;28;20934;-79
2021/09/15 01:25:21;;;;;;;3.87;3.57;;;23.90;99.90;;;;;;5008270;28;20873;-79
2021/09/15 01:27:49;;;;;;;3.90;3.50;;;23.90;99.90;;;;;;5008668;28;20461;-79
2021/09/15 01:30:17;;;;;;;4.40;4.00;;;23.90;99.90;;;;;;5006344;28;20468;-79
2021/09/15 01:32:45;;;;;;;4.80;4.00;;;24.00;99.90;;;;;;5009346;28;20460;-79
2021/09/15 01:35:13;;;;;;;4.40;4.00;;;24.00;99.90;;;;;;5008444;28;20458;-80
2021/09/15 01:37:42;;;;;;;5.40;4.10;;;23.90;99.90;;;;;;5009660;28;20805;-78
2021/09/15 01:40:13;;;;;;;4.27;3.87;;;23.80;99.90;;;;;;5006967;28;20731;-80
2021/09/15 01:42:41;;;;;;;4.70;3.60;;;23.90;99.90;;;;;;5003838;28;20945;-78
2021/09/15 01:45:12;;;;;;;4.50;3.47;;;23.90;99.90;;;;;;5006911;28;20461;-78
2021/09/15 01:47:41;;;;;;;4.70;4.20;;;23.90;99.90;;;;;;5008825;28;20922;-79
2021/09/15 01:50:10;;;;;;;4.40;4.00;;;23.80;99.90;;;;;;5007369;28;20491;-78
2021/09/15 01:52:39;;;;;;;5.50;4.00;;;23.90;99.90;;;;;;5006649;28;20464;-78
2021/09/15 01:55:08;;;;;;;4.53;4.20;;;23.90;99.90;;;;;;5003146;28;20465;-79
2021/09/15 01:57:38;;;;;;;4.97;4.40;;;24.00;99.90;;;;;;5007667;28;20453;-79
2021/09/15 02:00:07;;;;;;;4.20;3.90;;;23.90;99.90;;;;;;5004436;28;22667;-79
2021/09/15 02:02:35;;;;;;;5.63;4.27;;;23.90;99.90;;;;;;5006168;28;20445;-79
2021/09/15 02:05:04;;;;;;;3.97;3.57;;;24.00;99.90;;;;;;5008276;28;20465;-79
2021/09/15 02:07:32;;;;;;;4.50;4.10;;;23.90;99.90;;;;;;5009576;28;20547;-79
2021/09/15 02:10:02;;;;;;;5.00;3.80;;;23.80;99.90;;;;;;5009264;28;20441;-79
2021/09/15 02:12:30;;;;;;;4.57;4.10;;;23.70;99.90;;;;;;5003891;28;21019;-79
2021/09/15 02:15:00;;;;;;;4.60;4.30;;;23.70;99.90;;;;;;5007973;28;20468;-78
2021/09/15 02:17:30;;;;;;;6.23;4.30;;;23.80;99.90;;;;;;5008065;28;20452;-78
2021/09/15 02:19:58;;;;;;;3.93;3.50;;;23.80;99.90;;;;;;4990124;28;20470;-79
2021/09/15 02:22:26;;;;;;;8.83;4.10;;;23.80;99.90;;;;;;5009141;28;20449;-79
2021/09/15 02:24:54;;;;;;;4.60;4.13;;;23.80;99.90;;;;;;5007792;28;21019;-78
2021/09/15 02:27:22;;;;;;;5.63;5.13;;;23.80;99.90;;;;;;5010100;28;21004;-79
2021/09/15 02:29:51;;;;;;;4.47;4.03;;;23.70;99.90;;;;;;5018473;28;20461;-80
2021/09/15 02:32:20;;;;;;;4.30;4.00;;;23.60;99.90;;;;;;5008299;28;20449;-79
2021/09/15 02:34:48;;;;;;;4.30;3.93;;;23.70;99.90;;;;;;5006301;28;20480;-80
2021/09/15 02:37:17;;;;;;;4.00;3.70;;;23.70;99.90;;;;;;5024315;28;20445;-79
2021/09/15 02:39:45;;;;;;;5.20;4.30;;;23.70;99.90;;;;;;5006196;28;20457;-80
2021/09/15 02:42:13;;;;;;;3.73;3.43;;;23.70;99.90;;;;;;5000775;28;20516;-80
2021/09/15 02:44:41;;;;;;;4.30;4.00;;;23.70;99.90;;;;;;5005870;28;20566;-81
2021/09/15 02:47:09;;;;;;;2.93;2.67;;;23.70;99.90;;;;;;5006214;28;20469;-79
2021/09/15 02:49:40;;;;;;;5.63;3.50;;;23.50;99.90;;;;;;5008217;28;20833;-80
2021/09/15 02:52:08;;;;;;;4.40;3.03;;;23.40;99.90;;;;;;5004221;28;20453;-79
2021/09/15 02:54:36;;;;;;;4.50;3.10;;;23.50;99.90;;;;;;5001628;28;21054;-79
2021/09/15 02:57:04;;;;;;;4.43;4.00;;;23.50;99.90;;;;;;5007415;28;20441;-79
2021/09/15 02:59:32;;;;;;;3.67;3.37;;;23.50;99.90;;;;;;5006712;28;20453;-80
2021/09/15 03:02:01;;;;;;;4.40;3.70;;;23.40;99.90;;;;;;5021340;28;20489;-79
2021/09/15 03:04:29;;;;;;;14.13;4.77;;;23.40;99.90;;;;;;5008153;28;20469;-79
2021/09/15 03:06:58;;;;;;;3.23;2.97;;;23.30;99.90;;;;;;5006316;28;20457;-79
2021/09/15 03:09:27;;;;;;;3.80;3.20;;;23.40;99.90;;;;;;4998690;28;20457;-79
2021/09/15 03:11:55;;;;;;;3.50;3.30;;;23.40;99.90;;;;;;5006532;28;20461;-79
2021/09/15 03:14:23;;;;;;;4.10;3.50;;;23.30;99.90;;;;;;5010330;28;20507;-80
2021/09/15 03:16:54;;;;;;;4.33;4.00;;;23.30;99.90;;;;;;5010444;28;20461;-79
2021/09/15 03:19:22;;;;;;;7.73;3.53;;;23.40;99.90;;;;;;5010621;28;20465;-79
2021/09/15 03:21:50;;;;;;;3.70;3.13;;;23.30;99.90;;;;;;5011946;28;20469;-79
2021/09/15 03:24:20;;;;;;;4.10;3.63;;;23.30;99.90;;;;;;5011945;28;20519;-80
2021/09/15 03:26:48;;;;;;;3.50;3.20;;;23.20;99.90;;;;;;5010506;28;20461;-80
2021/09/15 03:29:16;;;;;;;4.10;3.10;;;23.10;99.90;;;;;;5009965;28;20453;-80
2021/09/15 03:31:45;;;;;;;4.67;3.30;;;23.10;99.90;;;;;;5010809;28;20461;-78
2021/09/15 03:34:13;;;;;;;3.30;3.10;;;23.20;99.90;;;;;;5009661;28;20485;-79
2021/09/15 03:36:41;;;;;;;3.83;3.40;;;23.20;99.90;;;;;;5012673;28;20960;-79
2021/09/15 03:39:09;;;;;;;3.37;3.03;;;23.20;99.90;;;;;;5008916;28;20453;-80
2021/09/15 03:41:39;;;;;;;4.70;3.10;;;23.30;99.90;;;;;;5011259;28;20468;-78
2021/09/15 03:44:07;;;;;;;4.43;3.50;;;23.20;99.90;;;;;;5009753;28;20559;-79
2021/09/15 03:46:35;;;;;;;3.80;3.50;;;23.20;99.90;;;;;;5008463;28;20461;-79
2021/09/15 03:49:04;;;;;;;5.90;3.20;;;23.20;99.90;;;;;;5008196;28;20503;-79
2021/09/15 03:51:32;;;;;;;3.50;3.20;;;23.20;99.90;;;;;;5009935;28;20466;-78
2021/09/15 03:54:01;;;;;;;3.60;3.10;;;23.20;99.90;;;;;;5008311;28;20477;-78
2021/09/15 03:56:29;;;;;;;5.60;3.50;;;23.20;99.90;;;;;;5007385;28;20461;-79
2021/09/15 03:58:59;;;;;;;3.97;3.50;;;23.20;99.90;;;;;;5009439;28;20503;-79
2021/09/15 04:01:27;;;;;;;4.73;3.10;;;23.10;99.90;;;;;;5006980;28;20589;-78
2021/09/15 04:03:55;;;;;;;3.77;3.43;;;23.20;99.90;;;;;;5006043;28;20532;-76
2021/09/15 04:06:23;;;;;;;3.20;2.87;;;23.30;99.90;;;;;;5010803;28;20450;-78
2021/09/15 04:08:51;;;;;;;3.13;2.93;;;23.30;99.90;;;;;;5008548;28;20980;-77
2021/09/15 04:11:20;;;;;;;4.47;4.07;;;23.20;99.90;;;;;;5004517;28;20433;-77
2021/09/15 04:13:48;;;;;;;3.13;2.93;;;23.20;99.90;;;;;;5007564;28;20473;-76
2021/09/15 04:16:17;;;;;;;3.53;3.23;;;23.20;99.90;;;;;;5009513;28;20445;-76
2021/09/15 04:18:46;;;;;;;3.73;3.43;;;23.20;99.90;;;;;;5009254;28;20449;-75
2021/09/15 04:21:14;;;;;;;3.97;3.53;;;23.20;99.90;;;;;;5022600;28;21113;-73
2021/09/15 04:23:52;;;;;;;3.40;3.10;;;23.30;99.90;;;;;;5005272;28;20500;-76
2021/09/15 04:31:53;;;;;;;3.93;2.90;;;23.30;1.00;;;;;;5005839;28;20539;-76
2021/09/15 04:34:21;;;;;;;3.27;3.07;;;23.30;1.00;;;;;;5009740;28;20476;-71
2021/09/15 04:36:49;;;;;;;4.27;3.50;;;23.20;1.00;;;;;;5008175;28;20457;-78
2021/09/15 04:39:18;;;;;;;5.67;5.13;;;23.00;1.00;;;;;;5008816;28;20503;-75
2021/09/15 04:41:46;;;;;;;3.60;3.30;;;23.00;1.00;;;;;;5007607;28;20481;-73
2021/09/15 04:44:14;;;;;;;3.40;3.10;;;23.20;1.00;;;;;;5009840;28;20489;-76
2021/09/15 04:46:42;;;;;;;4.63;3.23;;;23.10;1.00;;;;;;5005498;28;20461;-74
2021/09/15 04:49:12;;;;;;;3.00;2.80;;;23.10;1.00;;;;;;5004025;28;20453;-76
2021/09/15 04:51:40;;;;;;;4.23;3.20;;;23.00;1.00;;;;;;5009952;28;20437;-77
2021/09/15 04:54:08;;;;;;;3.57;3.27;;;22.90;1.00;;;;;;5007560;28;21044;-76
2021/09/15 04:56:36;;;;;;;4.13;3.77;;;22.90;1.00;;;;;;5008309;28;20453;-75
2021/09/15 04:59:04;;;;;;;3.87;3.57;;;22.90;1.00;;;;;;5008080;28;20457;-76
2021/09/15 05:01:33;;;;;;;4.07;3.67;;;22.90;1.00;;;;;;5005940;28;20478;-76
2021/09/15 05:04:01;;;;;;;3.60;3.20;;;22.90;35.90;;;;;;5006790;28;20508;-76
2021/09/15 05:06:30;;;;;;;2.93;2.70;;;22.80;99.90;;;;;;5008632;28;20461;-77
2021/09/15 05:08:59;;;;;;;4.30;3.27;;;22.70;99.90;;;;;;5003528;28;20461;-77
2021/09/15 05:11:27;;;;;;;4.37;3.83;;;22.70;99.90;;;;;;5002949;28;20448;-77
2021/09/15 05:13:55;;;;;;;3.67;3.37;;;22.70;99.90;;;;;;5000900;28;20474;-77
2021/09/15 05:16:23;;;;;;;4.40;3.60;;;22.60;99.90;;;;;;5000505;28;20454;-74
2021/09/15 05:18:51;;;;;;;3.33;3.07;;;22.50;1.00;;;;;;5023236;28;20460;-76
2021/09/15 05:21:19;;;;;;;4.17;3.43;;;22.40;1.00;;;;;;5008180;28;20461;-76
2021/09/15 05:23:49;;;;;;;4.23;3.70;;;22.30;11.30;;;;;;5008222;28;20492;-77
2021/09/15 05:26:17;;;;;;;4.40;3.70;;;22.20;99.90;;;;;;5006375;28;20458;-77
2021/09/15 05:28:45;;;;;;;4.43;3.50;;;22.10;1.00;;;;;;5001249;28;20460;-77
2021/09/15 05:31:13;;;;;;;7.97;3.80;;;22.10;1.00;;;;;;5002056;28;20947;-77
2021/09/15 05:33:41;;;;;;;4.00;3.57;;;22.20;1.00;;;;;;5003109;28;20535;-76
2021/09/15 05:36:10;;;;;;;4.07;3.67;;;22.20;1.00;;;;;;5008311;28;20506;-77
2021/09/15 05:38:38;;;;;;;7.13;3.90;;;22.30;1.00;;;;;;4994988;28;20448;-76
2021/09/15 05:41:07;;;;;;;4.50;3.50;;;22.20;1.00;;;;;;5007831;28;20448;-77
2021/09/15 05:43:35;;;;;;;3.97;3.43;;;22.30;1.00;;;;;;5009441;28;20495;-77
2021/09/15 05:46:04;;;;;;;5.87;4.27;;;22.10;1.00;;;;;;5003293;28;20798;-77
2021/09/15 05:48:32;;;;;;;4.70;4.30;;;22.20;1.00;;;;;;5007168;28;20448;-76
2021/09/15 05:51:00;;;;;;;4.07;3.70;;;22.20;11.60;;;;;;5002862;28;20468;-77
2021/09/15 05:53:28;;;;;;;5.00;4.60;;;22.10;42.20;;;;;;5006904;28;20485;-76
2021/09/15 05:55:56;;;;;;;7.10;4.33;;;22.00;99.90;;;;;;5007843;28;20451;-76
2021/09/15 05:58:26;;;;;;;4.03;3.60;;;22.10;99.90;;;;;;5014744;28;20464;-77
2021/09/15 06:00:54;;;;;;;4.57;3.60;;;22.10;99.90;;;;;;5006864;28;20448;-77
2021/09/15 06:03:22;;;;;;;7.47;4.10;;;22.00;99.90;;;;;;5007756;28;20493;-77
2021/09/15 06:05:50;;;;;;;4.93;4.57;;;22.00;99.90;;;;;;5006841;28;20523;-77
2021/09/15 06:08:19;;;;;;;5.00;4.30;;;22.00;99.90;;;;;;5007877;28;20460;-77
2021/09/15 06:10:47;;;;;;;5.50;4.80;;;21.80;1.00;;;;;;5004640;28;20468;-77
2021/09/15 06:13:15;;;;;;;5.10;4.13;;;21.70;99.90;;;;;;5006710;28;20559;-78
2021/09/15 06:15:46;;;;;;;6.07;3.80;;;21.80;99.90;;;;;;5006266;28;20456;-77
2021/09/15 06:18:14;;;;;;;5.13;4.63;;;21.90;13.10;;;;;;5008587;28;20472;-76
2021/09/15 06:20:42;;;;;;;4.23;3.93;;;22.00;1.00;;;;;;5007268;28;20483;-77
2021/09/15 06:23:11;;;;;;;5.93;3.70;;;21.80;99.90;;;;;;5006623;28;20989;-77
2021/09/15 06:25:41;;;;;;;3.93;3.70;;;21.60;1.00;;;;;;4997345;28;20459;-77
2021/09/15 06:28:12;;;;;;;4.93;3.83;;;21.50;99.90;;;;;;5006645;28;20459;-77
2021/09/15 06:30:41;;;;;;;4.87;3.80;;;21.60;99.90;;;;;;5003198;28;20513;-78
2021/09/15 06:33:11;;;;;;;4.50;4.10;;;21.40;99.90;;;;;;5008117;28;20466;-77
2021/09/15 06:35:39;;;;;;;6.77;4.77;;;21.20;39.80;;;;;;5007127;28;20450;-76
2021/09/15 06:38:10;;;;;;;4.83;4.40;;;21.20;99.90;;;;;;5007011;28;20469;-76
2021/09/15 06:40:39;;;;;;;4.20;3.90;;;21.20;1.00;;;;;;5006988;28;20493;-78
2021/09/15 06:43:07;;;;;;;4.03;3.47;;;21.10;1.00;;;;;;5006959;28;20553;-77
2021/09/15 06:45:36;;;;;;;4.67;4.23;;;21.20;99.90;;;;;;5006272;28;20943;-74
2021/09/15 06:48:04;;;;;;;4.30;3.70;;;21.40;40.50;;;;;;5012525;28;20505;-77
2021/09/15 06:50:34;;;;;;;5.30;3.70;;;21.60;1.00;;;;;;5011465;28;20454;-76
2021/09/15 06:53:02;;;;;;;2.73;2.50;;;21.70;99.90;;;;;;5026657;28;20480;-77
2021/09/15 06:55:31;;;;;;;3.43;2.73;;;21.80;99.90;;;;;;5011124;28;20508;-77
2021/09/15 06:57:59;;;;;;;3.40;3.10;;;21.80;1.00;;;;;;5014742;28;20451;-78
2021/09/15 07:00:27;;;;;;;4.20;3.20;;;21.90;99.90;;;;;;5009263;28;20468;-77
2021/09/15 07:02:57;;;;;;;3.67;2.60;;;21.90;99.90;;;;;;5007283;28;20491;-77
2021/09/15 07:05:25;;;;;;;5.90;3.10;;;22.00;99.90;;;;;;5011402;28;20551;-78
2021/09/15 07:07:55;;;;;;;6.13;2.83;;;22.10;1.00;;;;;;5025856;28;20819;-78
2021/09/15 07:10:24;;;;;;;3.53;2.83;;;22.10;96.80;;;;;;5008723;28;20465;-78
2021/09/15 07:12:52;;;;;;;3.80;3.37;;;22.00;59.70;;;;;;5008039;28;20468;-79
2021/09/15 07:15:20;;;;;;;5.03;3.40;;;22.00;99.90;;;;;;5009701;28;20441;-78
2021/09/15 07:17:49;;;;;;;3.27;2.77;;;22.10;99.90;;;;;;4995765;28;20460;-78
2021/09/15 07:20:17;;;;;;;4.63;3.43;;;22.10;99.90;;;;;;5008096;28;20476;-78
2021/09/15 07:22:46;;;;;;;5.97;3.60;;;22.10;99.90;;;;;;5011756;28;20481;-78
2021/09/15 07:25:15;;;;;;;2.90;2.20;;;22.20;1.00;;;;;;4999371;28;20444;-78
2021/09/15 07:27:44;;;;;;;3.00;2.60;;;22.30;1.00;;;;;;5011161;28;20494;-78
2021/09/15 07:30:13;;;;;;;3.73;2.83;;;22.30;1.00;;;;;;5005014;28;20457;-78
2021/09/15 07:32:41;;;;;;;4.03;2.80;;;22.30;99.90;;;;;;5001512;28;20449;-76
2021/09/15 07:35:12;;;;;;;3.23;2.80;;;22.30;99.90;;;;;;5010745;28;20464;-77
2021/09/15 07:37:41;;;;;;;3.37;2.37;;;21.90;99.90;;;;;;4998773;28;20936;-78
2021/09/15 07:40:11;;;;;;;3.00;2.77;;;21.80;99.90;;;;;;5009735;28;20828;-78
2021/09/15 07:42:41;;;;;;;2.87;2.50;;;21.80;99.90;;;;;;5006394;28;21198;-77
2021/09/15 07:45:12;;;;;;;2.97;2.73;;;21.70;99.90;;;;;;5009257;28;20827;-78
2021/09/15 07:47:40;;;;;;;3.87;2.63;;;21.50;1.00;;;;;;5006234;28;20508;-77
2021/09/15 07:50:10;;;;;;;4.23;3.13;;;21.60;99.90;;;;;;5009271;28;20464;-77
2021/09/15 07:52:38;;;;;;;4.00;2.57;;;21.50;99.90;;;;;;5010237;28;20461;-78
2021/09/15 07:55:07;;;;;;;2.50;2.27;;;21.70;99.90;;;;;;5009882;28;20456;-77
2021/09/15 07:57:36;;;;;;;3.50;2.70;;;21.70;1.00;;;;;;5024588;28;20516;-79
2021/09/15 08:00:07;;;;;;;3.93;2.63;;;21.60;99.90;;;;;;5009695;28;21040;-75
2021/09/15 08:02:35;;;;;;;4.00;2.70;;;21.50;1.00;;;;;;5008803;28;20477;-78
2021/09/15 08:05:04;;;;;;;2.87;2.47;;;21.40;99.90;;;;;;5009657;28;20723;-77
2021/09/15 08:07:32;;;;;;;3.23;2.80;;;21.30;99.90;;;;;;5009155;28;20574;-78
2021/09/15 08:10:01;;;;;;;2.70;2.50;;;21.40;1.00;;;;;;5018491;28;20451;-78
2021/09/15 08:12:29;;;;;;;4.27;3.87;;;21.50;99.90;;;;;;5008439;28;20456;-77
2021/09/15 08:14:57;;;;;;;2.90;2.60;;;21.50;1.00;;;;;;5008713;28;20464;-77
2021/09/15 08:17:26;;;;;;;3.03;2.63;;;21.50;99.90;;;;;;5005690;28;20991;-77
2021/09/15 08:19:55;;;;;;;3.80;2.67;;;21.50;1.00;;;;;;5014707;28;20456;-79
2021/09/15 08:22:23;;;;;;;3.33;2.90;;;21.40;99.90;;;;;;5009400;28;20458;-77
2021/09/15 08:24:51;;;;;;;4.23;3.00;;;21.30;1.00;;;;;;5008541;28;20495;-77
2021/09/15 08:27:19;;;;;;;3.20;2.47;;;21.40;99.90;;;;;;5009221;28;20545;-77
2021/09/15 08:29:47;;;;;;;3.93;2.80;;;21.40;99.90;;;;;;5009628;28;20456;-77
2021/09/15 08:32:16;;;;;;;5.67;3.13;;;21.20;99.90;;;;;;5007766;28;20462;-77
2021/09/15 08:34:45;;;;;;;4.20;3.53;;;21.20;99.90;;;;;;5017437;28;20464;-78
2021/09/15 08:37:13;;;;;;;3.57;2.70;;;21.10;1.00;;;;;;5010521;28;20457;-78
2021/09/15 08:39:41;;;;;;;6.63;3.60;;;21.00;4.80;;;;;;5008481;28;20448;-77
2021/09/15 08:42:11;;;;;;;9.80;3.43;;;21.10;1.00;;;;;;5009250;28;20870;-78
2021/09/15 08:44:39;;;;;;;3.33;2.70;;;21.00;12.20;;;;;;5008533;28;20499;-77
2021/09/15 08:47:08;;;;;;;4.87;3.10;;;21.00;99.90;;;;;;5003991;28;20485;-76
2021/09/15 08:49:37;;;;;;;4.97;3.10;;;21.00;99.90;;;;;;5008427;28;20449;-78
2021/09/15 08:52:07;;;;;;;7.20;3.60;;;21.00;99.90;;;;;;5008025;28;20456;-78
2021/09/15 08:54:35;;;;;;;6.10;2.80;;;21.00;26.20;;;;;;5022081;28;20533;-76
2021/09/15 08:57:03;;;;;;;5.60;3.30;;;20.70;99.90;;;;;;5010117;28;20959;-78
2021/09/15 08:59:31;;;;;;;6.77;3.80;;;20.90;99.90;;;;;;5008024;28;20960;-77
2021/09/15 09:02:07;;;;;;;3.97;3.30;;;20.90;99.90;;;;;;5007474;28;20457;-77
2021/09/15 09:04:51;;;;;;;3.20;2.60;;;21.10;1.00;;;;;;5007573;28;20480;-77
2021/09/15 09:07:21;;;;;;;3.30;3.07;;;21.10;99.90;;;;;;5007652;28;20469;-77
2021/09/15 09:09:51;;;;;;;2.50;2.30;;;21.20;99.90;;;;;;5006229;28;20512;-77
2021/09/15 09:12:23;;;;;;;2.97;2.67;;;21.10;1.00;;;;;;5008555;28;21036;-76
2021/09/15 09:14:52;;;;;;;2.80;2.33;;;21.00;99.90;;;;;;5008990;28;20975;-75
2021/09/15 09:17:29;;;;;;;4.10;2.57;;;20.80;99.90;;;;;;5015240;28;20468;-78
2021/09/15 09:20:13;;;;;;;4.90;2.70;;;20.70;1.00;;;;;;5008749;28;20972;-77
2021/09/15 09:23:04;;;;;;;3.30;2.90;;;20.80;99.90;;;;;;5009537;28;20645;-76
2021/09/15 09:25:35;;;;;;;3.07;2.30;;;20.70;99.90;;;;;;5009402;28;20486;-77
2021/09/15 09:28:17;;;;;;;2.80;2.60;;;20.60;1.00;;;;;;5009170;28;20795;-77
2021/09/15 09:30:46;;;;;;;3.20;2.63;;;20.60;99.90;;;;;;5008675;28;20453;-77
2021/09/15 09:33:14;;;;;;;3.10;2.87;;;20.60;1.00;;;;;;5009062;28;20482;-76
2021/09/15 09:35:44;;;;;;;3.40;2.23;;;20.70;1.00;;;;;;5009551;28;20868;-77
2021/09/15 09:38:32;;;;;;;4.73;2.40;;;20.80;1.00;;;;;;5008768;28;20471;-79
2021/09/15 09:41:07;;;;;;;3.43;2.67;;;20.70;1.00;;;;;;4991658;28;20445;-78
2021/09/15 09:43:38;;;;;;;2.67;2.47;;;20.70;1.00;;;;;;5006997;28;20496;-77
2021/09/15 09:46:08;;;;;;;2.57;2.37;;;20.80;99.90;;;;;;5003738;28;20449;-78
2021/09/15 09:48:45;;;;;;;2.90;2.40;;;20.80;99.90;;;;;;5026606;28;20442;-79
2021/09/15 09:51:30;;;;;;;2.30;2.10;;;21.00;99.90;;;;;;5011172;28;20449;-77
2021/09/15 09:54:20;;;;;;;3.83;2.30;;;21.00;1.00;;;;;;5006087;28;20481;-78
2021/09/15 09:56:50;;;;;;;3.53;2.47;;;20.90;1.00;;;;;;5008798;28;20540;-78
2021/09/15 09:59:20;;;;;;;2.23;2.03;;;20.90;1.00;;;;;;5008037;28;20456;-77
2021/09/15 10:01:50;;;;;;;2.60;2.40;;;21.10;99.90;;;;;;5004076;28;20447;-77
2021/09/15 10:04:19;;;;;;;2.23;2.03;;;21.10;99.90;;;;;;5008721;28;20469;-78
2021/09/15 10:06:50;;;;;;;2.87;2.40;;;21.30;99.90;;;;;;5007452;28;20465;-77
2021/09/15 10:09:21;;;;;;;3.13;2.80;;;21.30;99.90;;;;;;5023314;28;20461;-78
2021/09/15 10:11:49;;;;;;;5.10;2.57;;;21.30;1.00;;;;;;5007140;28;20470;-77
2021/09/15 10:14:19;;;;;;;2.93;2.03;;;21.30;99.90;;;;;;5012035;28;20530;-77
2021/09/15 10:16:52;;;;;;;2.67;2.43;;;21.30;37.70;;;;;;5013505;28;20864;-78
2021/09/15 10:19:27;;;;;;;2.33;2.13;;;21.30;99.90;;;;;;5006110;28;20887;-78
2021/09/15 10:22:00;;;;;;;2.80;2.43;;;21.30;99.90;;;;;;5016062;28;20461;-78
2021/09/15 10:24:53;;;;;;;3.50;2.70;;;21.40;1.00;;;;;;5001517;28;20491;-77
2021/09/15 10:27:23;;;;;;;8.13;2.60;;;21.50;99.90;;;;;;5007307;28;20749;-78
2021/09/15 10:30:10;;;;;;;2.40;2.20;;;21.40;99.90;;;;;;5007234;28;20453;-77
2021/09/15 10:32:40;;;;;;;5.50;3.20;;;21.50;1.00;;;;;;4991468;28;20453;-77
2021/09/15 10:35:09;;;;;;;4.27;2.70;;;21.50;1.00;;;;;;5003137;28;20460;-75
2021/09/15 10:37:56;;;;;;;3.33;2.87;;;21.60;1.00;;;;;;5007060;28;20463;-77
2021/09/15 10:40:36;;;;;;;3.93;3.50;;;21.70;1.00;;;;;;5005544;28;20499;-78
2021/09/15 10:43:25;;;;;;;2.97;2.50;;;21.70;99.90;;;;;;5008572;28;20472;-79
2021/09/15 10:46:27;;;;;;;2.70;2.40;;;21.50;99.90;;;;;;5001301;28;20565;-78
2021/09/15 10:49:28;;;;;;;5.20;2.53;;;21.40;99.90;;;;;;5018386;28;20456;-74
2021/09/15 10:52:25;;;;;;;2.33;2.10;;;21.60;99.90;;;;;;5020894;28;20452;-79
2021/09/15 10:54:55;;;;;;;3.23;2.63;;;21.80;99.90;;;;;;5008117;28;20485;-78
2021/09/15 10:57:33;;;;;;;3.70;3.17;;;21.90;1.00;;;;;;5008639;28;20800;-78
2021/09/15 11:00:04;;;;;;;5.53;2.60;;;22.00;99.90;;;;;;5005657;28;20587;-76
2021/09/15 11:02:34;;;;;;;3.70;2.50;;;21.90;1.00;;;;;;5007824;28;20449;-76
2021/09/15 11:05:45;;;;;;;3.57;2.80;;;22.10;1.00;;;;;;5008193;28;20574;-76
2021/09/15 11:08:38;;;;;;;4.60;2.67;;;22.10;99.90;;;;;;4970502;28;20515;-77
2021/09/15 11:11:08;;;;;;;3.70;3.10;;;22.20;99.90;;;;;;4997016;28;20460;-74
2021/09/15 11:14:02;;;;;;;3.50;2.77;;;22.20;41.80;;;;;;4997618;28;20481;-75
2021/09/15 11:16:33;;;;;;;3.57;2.40;;;22.30;99.90;;;;;;4995752;28;20473;-74
2021/09/15 11:19:03;;;;;;;2.33;2.13;;;22.40;1.00;;;;;;5005564;28;20444;-75
2021/09/15 11:21:33;;;;;;;3.30;2.20;;;22.20;1.00;;;;;;5006985;28;21058;-76
2021/09/15 11:24:09;;;;;;;2.53;2.10;;;22.20;1.00;;;;;;5007449;28;20491;-75
2021/09/15 11:26:40;;;;;;;2.90;2.70;;;22.20;1.00;;;;;;4993549;28;20472;-76
2021/09/15 11:29:10;;;;;;;3.07;2.77;;;22.20;1.00;;;;;;5000045;28;20464;-75
2021/09/15 11:31:41;;;;;;;3.00;2.30;;;22.30;1.00;;;;;;5005250;28;20465;-75
2021/09/15 11:34:11;;;;;;;2.70;2.50;;;22.40;1.00;;;;;;5009191;28;20495;-76
2021/09/15 11:36:40;;;;;;;3.13;2.80;;;22.40;41.90;;;;;;5010628;28;20453;-77
2021/09/15 11:39:10;;;;;;;4.97;2.67;;;22.50;55.60;;;;;;5013985;28;20457;-74
2021/09/15 11:41:38;;;;;;;4.83;2.43;;;22.50;1.00;;;;;;5010977;28;20457;-75
2021/09/15 11:44:06;;;;;;;3.23;2.80;;;22.50;1.00;;;;;;5008629;28;20530;-77
2021/09/15 11:46:38;;;;;;;7.50;2.90;;;22.50;1.00;;;;;;5007746;28;20542;-76
2021/09/15 11:49:06;;;;;;;2.73;2.53;;;22.50;99.90;;;;;;5012749;28;20528;-76
2021/09/15 11:51:36;;;;;;;2.80;2.10;;;22.60;53.00;;;;;;5006864;28;20468;-77
2021/09/15 11:54:09;;;;;;;2.90;2.60;;;22.60;99.90;;;;;;5008378;28;21183;-76
2021/09/15 11:56:43;;;;;;;3.90;3.03;;;22.60;1.00;;;;;;5010087;28;20464;-76
2021/09/15 11:59:12;;;;;;;3.17;2.50;;;22.60;1.00;;;;;;5004914;28;20479;-77
2021/09/15 12:02:02;;;;;;;5.07;3.70;;;22.50;99.90;;;;;;5006449;28;20449;-76
2021/09/15 12:04:34;;;;;;;2.60;2.40;;;22.40;1.00;;;;;;5025528;28;20534;-76
2021/09/15 12:07:04;;;;;;;3.17;2.90;;;22.50;99.90;;;;;;5002969;28;20908;-77
2021/09/15 12:09:35;;;;;;;4.30;2.90;;;22.50;99.90;;;;;;5007875;28;20465;-75
2021/09/15 12:12:08;;;;;;;4.23;2.20;;;22.50;49.40;;;;;;5010421;28;20948;-75
2021/09/15 12:14:37;;;;;;;6.90;3.17;;;22.50;99.90;;;;;;5023217;28;20831;-75
2021/09/15 12:17:07;;;;;;;4.87;3.17;;;22.50;71.40;;;;;;5009989;28;20458;-75
2021/09/15 12:19:37;;;;;;;3.33;2.23;;;22.50;1.00;;;;;;5009111;28;20531;-76
2021/09/15 12:22:05;;;;;;;4.90;2.80;;;22.60;99.90;;;;;;5017712;28;20479;-75
2021/09/15 12:24:34;;;;;;;2.83;2.63;;;22.40;74.60;;;;;;5020877;28;20571;-81
2021/09/15 12:27:15;;;;;;;2.93;2.63;;;22.50;99.90;;;;;;5007548;28;20484;-77
2021/09/15 12:29:43;;;;;;;3.47;3.17;;;22.60;1.00;;;;;;5007566;28;20476;-77
2021/09/15 12:32:13;;;;;;;2.87;2.67;;;22.60;99.90;;;;;;5007735;28;20852;-76
2021/09/15 12:34:44;;;;;;;2.30;2.10;;;22.70;16.30;;;;;;5007161;28;20486;-78
2021/09/15 12:37:14;;;;;;;3.30;2.60;;;22.60;99.90;;;;;;5025194;28;20528;-77
2021/09/15 12:39:47;;;;;;;2.53;2.33;;;22.60;99.90;;;;;;5011943;28;20493;-80
2021/09/15 12:42:17;;;;;;;3.03;2.73;;;22.70;99.90;;;;;;5008232;28;20953;-76
2021/09/15 12:44:45;;;;;;;4.10;2.30;;;22.60;99.90;;;;;;5007622;28;20485;-76
2021/09/15 12:47:15;;;;;;;3.93;3.10;;;22.70;23.40;;;;;;5006503;28;20488;-76
2021/09/15 12:49:44;;;;;;;2.60;2.27;;;22.70;99.90;;;;;;5029167;28;20935;-76
2021/09/15 12:52:15;;;;;;;4.13;2.37;;;22.70;99.90;;;;;;5009117;28;20885;-76
2021/09/15 12:54:53;;;;;;;2.40;2.20;;;22.80;99.90;;;;;;5009236;28;20503;-77
2021/09/15 12:57:26;;;;;;;3.20;2.60;;;22.80;1.00;;;;;;5009737;28;20441;-75
2021/09/15 12:59:55;;;;;;;2.83;2.63;;;22.80;1.00;;;;;;5011303;28;20463;-80
2021/09/15 13:02:30;;;;;;;3.00;2.00;;;22.90;99.90;;;;;;5023584;28;20468;-78
2021/09/15 13:05:00;;;;;;;2.50;2.30;;;23.00;99.90;;;;;;5007716;28;20507;-79
2021/09/15 13:07:28;;;;;;;2.40;2.17;;;23.00;99.90;;;;;;4999380;28;21026;-77
2021/09/15 13:09:56;;;;;;;3.67;2.80;;;23.10;99.90;;;;;;5005226;28;20453;-74
2021/09/15 13:12:26;;;;;;;3.20;2.90;;;23.10;99.90;;;;;;5014790;28;20457;-77